sensor_id;sensor_type;location;lat;lon;timestamp;P1;durP1;ratioP1;P2;durP2;ratioP2
13607;SDS011;6875;50.852;5.672;2023-03-14T00:00:24;4.70;;;1.70;;
13607;SDS011;6875;50.852;5.672;2023-03-14T00:02:51;7.57;;;2.00;;
13607;SDS011;6875;50.852;5.672;2023-03-14T00:05:18;6.43;;;2.20;;
13607;SDS011;6875;50.852;5.672;2023-03-14T00:07:45;7.37;;;2.27;;
13607;SDS011;6875;50.852;5.672;2023-03-14T00:10:12;5.27;;;1.40;;
13607;SDS011;6875;50.852;5.672;2023-03-14T00:12:39;5.30;;;1.80;;
13607;SDS011;6875;50.852;5.672;2023-03-14T00:15:08;4.57;;;1.60;;
13607;SDS011;6875;50.852;5.672;2023-03-14T00:17:35;5.63;;;1.70;;
13607;SDS011;6875;50.852;5.672;2023-03-14T00:20:02;7.93;;;2.00;;
13607;SDS011;6875;50.852;5.672;2023-03-14T00:22:33;3.27;;;1.70;;
13607;SDS011;6875;50.852;5.672;2023-03-14T00:25:00;8.33;;;1.83;;
13607;SDS011;6875;50.852;5.672;2023-03-14T00:27:27;7.70;;;2.17;;
13607;SDS011;6875;50.852;5.672;2023-03-14T00:29:53;5.60;;;1.60;;
13607;SDS011;6875;50.852;5.672;2023-03-14T00:32:21;6.63;;;1.50;;
13607;SDS011;6875;50.852;5.672;2023-03-14T00:34:48;6.17;;;1.93;;
13607;SDS011;6875;50.852;5.672;2023-03-14T00:37:15;6.70;;;1.67;;
13607;SDS011;6875;50.852;5.672;2023-03-14T00:39:41;5.73;;;1.90;;
13607;SDS011;6875;50.852;5.672;2023-03-14T00:42:08;5.33;;;1.73;;
13607;SDS011;6875;50.852;5.672;2023-03-14T00:44:35;7.60;;;1.53;;
13607;SDS011;6875;50.852;5.672;2023-03-14T00:47:02;7.20;;;1.80;;
13607;SDS011;6875;50.852;5.672;2023-03-14T00:49:30;2.97;;;1.53;;
13607;SDS011;6875;50.852;5.672;2023-03-14T00:51:56;5.87;;;2.20;;
13607;SDS011;6875;50.852;5.672;2023-03-14T00:54:23;6.80;;;1.50;;
13607;SDS011;6875;50.852;5.672;2023-03-14T00:56:49;6.50;;;1.97;;
13607;SDS011;6875;50.852;5.672;2023-03-14T00:59:16;8.63;;;2.10;;
13607;SDS011;6875;50.852;5.672;2023-03-14T01:01:42;10.33;;;2.10;;
13607;SDS011;6875;50.852;5.672;2023-03-14T01:04:09;4.10;;;1.40;;
13607;SDS011;6875;50.852;5.672;2023-03-14T01:06:37;6.83;;;2.13;;
13607;SDS011;6875;50.852;5.672;2023-03-14T01:09:05;7.23;;;2.03;;
13607;SDS011;6875;50.852;5.672;2023-03-14T01:11:32;5.50;;;1.70;;
13607;SDS011;6875;50.852;5.672;2023-03-14T01:14:00;8.07;;;1.90;;
13607;SDS011;6875;50.852;5.672;2023-03-14T01:16:27;9.47;;;2.00;;
13607;SDS011;6875;50.852;5.672;2023-03-14T01:18:55;7.80;;;2.13;;
13607;SDS011;6875;50.852;5.672;2023-03-14T01:21:22;12.50;;;2.43;;
13607;SDS011;6875;50.852;5.672;2023-03-14T01:23:51;7.37;;;1.90;;
13607;SDS011;6875;50.852;5.672;2023-03-14T01:26:19;9.23;;;2.23;;
13607;SDS011;6875;50.852;5.672;2023-03-14T01:28:48;5.67;;;1.63;;
13607;SDS011;6875;50.852;5.672;2023-03-14T01:31:15;8.33;;;1.70;;
13607;SDS011;6875;50.852;5.672;2023-03-14T01:33:42;6.10;;;1.97;;
13607;SDS011;6875;50.852;5.672;2023-03-14T01:36:09;6.40;;;1.40;;
13607;SDS011;6875;50.852;5.672;2023-03-14T01:38:37;8.10;;;1.63;;
13607;SDS011;6875;50.852;5.672;2023-03-14T01:41:06;13.03;;;2.10;;
13607;SDS011;6875;50.852;5.672;2023-03-14T01:43:34;6.70;;;1.83;;
13607;SDS011;6875;50.852;5.672;2023-03-14T01:49:04;5.10;;;1.73;;
13607;SDS011;6875;50.852;5.672;2023-03-14T01:51:35;7.97;;;2.43;;
13607;SDS011;6875;50.852;5.672;2023-03-14T01:54:06;7.70;;;1.50;;
13607;SDS011;6875;50.852;5.672;2023-03-14T01:56:37;6.70;;;1.47;;
13607;SDS011;6875;50.852;5.672;2023-03-14T01:59:04;8.63;;;1.57;;
13607;SDS011;6875;50.852;5.672;2023-03-14T02:01:33;5.80;;;1.40;;
13607;SDS011;6875;50.852;5.672;2023-03-14T02:04:01;12.50;;;1.70;;
13607;SDS011;6875;50.852;5.672;2023-03-14T02:06:29;5.73;;;1.80;;
13607;SDS011;6875;50.852;5.672;2023-03-14T02:09:00;8.60;;;1.60;;
13607;SDS011;6875;50.852;5.672;2023-03-14T02:11:27;6.87;;;2.00;;
13607;SDS011;6875;50.852;5.672;2023-03-14T02:13:56;7.70;;;1.80;;
13607;SDS011;6875;50.852;5.672;2023-03-14T02:16:24;6.20;;;1.90;;
13607;SDS011;6875;50.852;5.672;2023-03-14T02:18:50;8.50;;;1.63;;
13607;SDS011;6875;50.852;5.672;2023-03-14T02:21:18;6.53;;;1.63;;
13607;SDS011;6875;50.852;5.672;2023-03-14T02:23:51;12.00;;;2.10;;
13607;SDS011;6875;50.852;5.672;2023-03-14T02:26:26;7.63;;;1.63;;
13607;SDS011;6875;50.852;5.672;2023-03-14T02:28:55;6.83;;;1.80;;
13607;SDS011;6875;50.852;5.672;2023-03-14T02:31:22;6.00;;;2.17;;
13607;SDS011;6875;50.852;5.672;2023-03-14T02:33:49;7.27;;;2.03;;
13607;SDS011;6875;50.852;5.672;2023-03-14T02:36:16;7.43;;;1.93;;
13607;SDS011;6875;50.852;5.672;2023-03-14T02:38:46;6.80;;;1.97;;
13607;SDS011;6875;50.852;5.672;2023-03-14T02:41:14;6.37;;;1.70;;
13607;SDS011;6875;50.852;5.672;2023-03-14T02:43:40;8.97;;;2.10;;
13607;SDS011;6875;50.852;5.672;2023-03-14T02:46:08;11.57;;;2.63;;
13607;SDS011;6875;50.852;5.672;2023-03-14T02:48:38;5.90;;;2.60;;
13607;SDS011;6875;50.852;5.672;2023-03-14T02:51:06;2.80;;;1.70;;
13607;SDS011;6875;50.852;5.672;2023-03-14T02:53:34;8.50;;;2.70;;
13607;SDS011;6875;50.852;5.672;2023-03-14T02:56:02;8.80;;;2.83;;
13607;SDS011;6875;50.852;5.672;2023-03-14T02:58:29;8.90;;;2.70;;
13607;SDS011;6875;50.852;5.672;2023-03-14T03:00:56;13.93;;;2.60;;
13607;SDS011;6875;50.852;5.672;2023-03-14T03:03:24;10.90;;;2.60;;
13607;SDS011;6875;50.852;5.672;2023-03-14T03:05:51;12.53;;;2.40;;
13607;SDS011;6875;50.852;5.672;2023-03-14T03:08:18;6.93;;;2.43;;
13607;SDS011;6875;50.852;5.672;2023-03-14T03:10:45;9.30;;;2.73;;
13607;SDS011;6875;50.852;5.672;2023-03-14T03:13:11;8.73;;;2.67;;
13607;SDS011;6875;50.852;5.672;2023-03-14T03:15:38;6.13;;;2.63;;
13607;SDS011;6875;50.852;5.672;2023-03-14T03:18:05;12.67;;;2.67;;
13607;SDS011;6875;50.852;5.672;2023-03-14T03:23:01;12.30;;;2.60;;
13607;SDS011;6875;50.852;5.672;2023-03-14T03:25:28;8.17;;;2.63;;
13607;SDS011;6875;50.852;5.672;2023-03-14T03:27:54;8.87;;;2.40;;
13607;SDS011;6875;50.852;5.672;2023-03-14T03:30:21;10.77;;;2.47;;
13607;SDS011;6875;50.852;5.672;2023-03-14T03:32:47;8.47;;;2.30;;
13607;SDS011;6875;50.852;5.672;2023-03-14T03:35:14;9.87;;;2.47;;
13607;SDS011;6875;50.852;5.672;2023-03-14T03:37:42;11.23;;;2.73;;
13607;SDS011;6875;50.852;5.672;2023-03-14T03:40:09;11.17;;;2.77;;
13607;SDS011;6875;50.852;5.672;2023-03-14T03:42:36;11.07;;;2.60;;
13607;SDS011;6875;50.852;5.672;2023-03-14T03:45:03;8.10;;;2.40;;
13607;SDS011;6875;50.852;5.672;2023-03-14T03:47:30;8.57;;;2.30;;
13607;SDS011;6875;50.852;5.672;2023-03-14T03:49:57;9.37;;;2.40;;
13607;SDS011;6875;50.852;5.672;2023-03-14T03:52:23;10.67;;;2.07;;
13607;SDS011;6875;50.852;5.672;2023-03-14T03:54:51;16.60;;;2.07;;
13607;SDS011;6875;50.852;5.672;2023-03-14T03:57:18;8.87;;;2.37;;
13607;SDS011;6875;50.852;5.672;2023-03-14T03:59:44;8.50;;;1.60;;
13607;SDS011;6875;50.852;5.672;2023-03-14T04:02:11;7.33;;;1.93;;
13607;SDS011;6875;50.852;5.672;2023-03-14T04:04:37;6.80;;;2.07;;
13607;SDS011;6875;50.852;5.672;2023-03-14T04:07:04;4.80;;;1.73;;
13607;SDS011;6875;50.852;5.672;2023-03-14T04:09:30;11.10;;;2.00;;
13607;SDS011;6875;50.852;5.672;2023-03-14T04:11:58;11.27;;;2.17;;
13607;SDS011;6875;50.852;5.672;2023-03-14T04:14:25;6.80;;;2.10;;
13607;SDS011;6875;50.852;5.672;2023-03-14T04:16:52;7.47;;;1.47;;
13607;SDS011;6875;50.852;5.672;2023-03-14T04:19:18;6.47;;;1.63;;
13607;SDS011;6875;50.852;5.672;2023-03-14T04:21:45;5.80;;;1.67;;
13607;SDS011;6875;50.852;5.672;2023-03-14T04:24:12;5.50;;;1.53;;
13607;SDS011;6875;50.852;5.672;2023-03-14T04:26:38;6.80;;;1.80;;
13607;SDS011;6875;50.852;5.672;2023-03-14T04:29:06;6.93;;;1.70;;
13607;SDS011;6875;50.852;5.672;2023-03-14T04:31:32;6.13;;;1.90;;
13607;SDS011;6875;50.852;5.672;2023-03-14T04:33:59;4.07;;;1.50;;
13607;SDS011;6875;50.852;5.672;2023-03-14T04:36:25;3.67;;;1.50;;
13607;SDS011;6875;50.852;5.672;2023-03-14T04:38:52;4.63;;;1.53;;
13607;SDS011;6875;50.852;5.672;2023-03-14T04:41:18;6.17;;;2.10;;
13607;SDS011;6875;50.852;5.672;2023-03-14T04:43:45;12.67;;;2.33;;
13607;SDS011;6875;50.852;5.672;2023-03-14T04:46:13;4.90;;;1.40;;
13607;SDS011;6875;50.852;5.672;2023-03-14T04:48:39;7.27;;;1.90;;
13607;SDS011;6875;50.852;5.672;2023-03-14T04:51:06;6.37;;;1.87;;
13607;SDS011;6875;50.852;5.672;2023-03-14T04:53:33;5.40;;;2.03;;
13607;SDS011;6875;50.852;5.672;2023-03-14T04:56:00;7.33;;;1.80;;
13607;SDS011;6875;50.852;5.672;2023-03-14T04:58:27;6.77;;;1.57;;
13607;SDS011;6875;50.852;5.672;2023-03-14T05:00:53;5.27;;;1.73;;
13607;SDS011;6875;50.852;5.672;2023-03-14T05:03:21;4.07;;;1.80;;
13607;SDS011;6875;50.852;5.672;2023-03-14T05:05:48;7.37;;;2.53;;
13607;SDS011;6875;50.852;5.672;2023-03-14T05:08:14;6.50;;;2.00;;
13607;SDS011;6875;50.852;5.672;2023-03-14T05:10:41;6.80;;;2.20;;
13607;SDS011;6875;50.852;5.672;2023-03-14T05:13:07;4.43;;;2.10;;
13607;SDS011;6875;50.852;5.672;2023-03-14T05:15:34;5.87;;;1.83;;
13607;SDS011;6875;50.852;5.672;2023-03-14T05:18:00;7.03;;;1.87;;
13607;SDS011;6875;50.852;5.672;2023-03-14T05:20:28;6.57;;;2.07;;
13607;SDS011;6875;50.852;5.672;2023-03-14T05:22:55;5.27;;;2.20;;
13607;SDS011;6875;50.852;5.672;2023-03-14T05:25:21;8.80;;;2.60;;
13607;SDS011;6875;50.852;5.672;2023-03-14T05:27:48;6.93;;;2.67;;
13607;SDS011;6875;50.852;5.672;2023-03-14T05:30:14;4.57;;;2.40;;
13607;SDS011;6875;50.852;5.672;2023-03-14T05:32:41;6.00;;;3.00;;
13607;SDS011;6875;50.852;5.672;2023-03-14T05:35:08;5.87;;;3.30;;
13607;SDS011;6875;50.852;5.672;2023-03-14T05:37:36;7.10;;;3.30;;
13607;SDS011;6875;50.852;5.672;2023-03-14T05:40:03;7.63;;;3.37;;
13607;SDS011;6875;50.852;5.672;2023-03-14T05:42:31;7.97;;;3.53;;
13607;SDS011;6875;50.852;5.672;2023-03-14T05:44:57;6.53;;;3.80;;
13607;SDS011;6875;50.852;5.672;2023-03-14T05:47:24;9.33;;;5.07;;
13607;SDS011;6875;50.852;5.672;2023-03-14T05:49:50;9.20;;;4.83;;
13607;SDS011;6875;50.852;5.672;2023-03-14T05:52:17;10.47;;;4.87;;
13607;SDS011;6875;50.852;5.672;2023-03-14T05:54:45;12.20;;;5.50;;
13607;SDS011;6875;50.852;5.672;2023-03-14T05:57:11;12.80;;;5.20;;
13607;SDS011;6875;50.852;5.672;2023-03-14T05:59:38;8.80;;;4.80;;
13607;SDS011;6875;50.852;5.672;2023-03-14T06:02:05;7.67;;;4.97;;
13607;SDS011;6875;50.852;5.672;2023-03-14T06:04:31;9.17;;;4.90;;
13607;SDS011;6875;50.852;5.672;2023-03-14T06:06:58;8.43;;;4.50;;
13607;SDS011;6875;50.852;5.672;2023-03-14T06:09:24;8.97;;;5.03;;
13607;SDS011;6875;50.852;5.672;2023-03-14T06:11:52;9.97;;;5.90;;
13607;SDS011;6875;50.852;5.672;2023-03-14T06:14:19;8.00;;;5.10;;
13607;SDS011;6875;50.852;5.672;2023-03-14T06:16:45;9.57;;;5.50;;
13607;SDS011;6875;50.852;5.672;2023-03-14T06:19:13;8.27;;;5.10;;
13607;SDS011;6875;50.852;5.672;2023-03-14T06:21:39;14.20;;;6.47;;
13607;SDS011;6875;50.852;5.672;2023-03-14T06:24:06;11.27;;;6.10;;
13607;SDS011;6875;50.852;5.672;2023-03-14T06:26:32;13.07;;;6.60;;
13607;SDS011;6875;50.852;5.672;2023-03-14T06:29:00;12.80;;;6.87;;
13607;SDS011;6875;50.852;5.672;2023-03-14T06:31:28;11.07;;;6.03;;
13607;SDS011;6875;50.852;5.672;2023-03-14T06:33:55;13.10;;;7.43;;
13607;SDS011;6875;50.852;5.672;2023-03-14T06:36:22;8.60;;;6.80;;
13607;SDS011;6875;50.852;5.672;2023-03-14T06:38:48;12.03;;;6.67;;
13607;SDS011;6875;50.852;5.672;2023-03-14T06:41:15;9.77;;;5.50;;
13607;SDS011;6875;50.852;5.672;2023-03-14T06:43:41;11.93;;;5.90;;
13607;SDS011;6875;50.852;5.672;2023-03-14T06:46:09;12.77;;;6.40;;
13607;SDS011;6875;50.852;5.672;2023-03-14T06:48:36;12.10;;;6.70;;
13607;SDS011;6875;50.852;5.672;2023-03-14T06:51:03;10.53;;;6.73;;
13607;SDS011;6875;50.852;5.672;2023-03-14T06:53:29;16.00;;;7.67;;
13607;SDS011;6875;50.852;5.672;2023-03-14T06:55:56;11.03;;;6.83;;
13607;SDS011;6875;50.852;5.672;2023-03-14T06:58:22;13.70;;;7.67;;
13607;SDS011;6875;50.852;5.672;2023-03-14T07:00:49;12.27;;;6.80;;
13607;SDS011;6875;50.852;5.672;2023-03-14T07:03:17;3.03;;;2.17;;
13607;SDS011;6875;50.852;5.672;2023-03-14T07:05:43;2.73;;;1.27;;
13607;SDS011;6875;50.852;5.672;2023-03-14T07:08:10;4.10;;;1.07;;
13607;SDS011;6875;50.852;5.672;2023-03-14T07:10:36;1.13;;;0.60;;
13607;SDS011;6875;50.852;5.672;2023-03-14T07:13:03;4.10;;;0.97;;
13607;SDS011;6875;50.852;5.672;2023-03-14T07:15:30;2.10;;;0.90;;
13607;SDS011;6875;50.852;5.672;2023-03-14T07:17:56;2.07;;;0.80;;
13607;SDS011;6875;50.852;5.672;2023-03-14T07:20:24;3.17;;;0.80;;
13607;SDS011;6875;50.852;5.672;2023-03-14T07:22:51;3.13;;;1.10;;
13607;SDS011;6875;50.852;5.672;2023-03-14T07:25:20;1.77;;;1.10;;
13607;SDS011;6875;50.852;5.672;2023-03-14T07:27:47;4.23;;;1.37;;
13607;SDS011;6875;50.852;5.672;2023-03-14T07:30:14;3.70;;;1.77;;
13607;SDS011;6875;50.852;5.672;2023-03-14T07:32:40;2.87;;;1.43;;
13607;SDS011;6875;50.852;5.672;2023-03-14T07:35:07;8.90;;;2.10;;
13607;SDS011;6875;50.852;5.672;2023-03-14T07:37:36;4.93;;;2.10;;
13607;SDS011;6875;50.852;5.672;2023-03-14T07:40:03;8.03;;;1.90;;
13607;SDS011;6875;50.852;5.672;2023-03-14T07:42:32;3.33;;;1.33;;
13607;SDS011;6875;50.852;5.672;2023-03-14T07:44:58;5.30;;;1.40;;
13607;SDS011;6875;50.852;5.672;2023-03-14T07:47:25;5.30;;;1.67;;
13607;SDS011;6875;50.852;5.672;2023-03-14T07:49:51;3.20;;;1.53;;
13607;SDS011;6875;50.852;5.672;2023-03-14T07:52:18;4.13;;;1.30;;
13607;SDS011;6875;50.852;5.672;2023-03-14T07:54:46;5.90;;;1.40;;
13607;SDS011;6875;50.852;5.672;2023-03-14T07:57:12;7.00;;;1.50;;
13607;SDS011;6875;50.852;5.672;2023-03-14T07:59:39;3.70;;;1.33;;
13607;SDS011;6875;50.852;5.672;2023-03-14T08:02:05;2.90;;;1.20;;
13607;SDS011;6875;50.852;5.672;2023-03-14T08:04:36;4.93;;;1.33;;
13607;SDS011;6875;50.852;5.672;2023-03-14T08:07:03;2.63;;;1.43;;
13607;SDS011;6875;50.852;5.672;2023-03-14T08:09:30;2.23;;;1.00;;
13607;SDS011;6875;50.852;5.672;2023-03-14T08:11:58;5.93;;;1.43;;
13607;SDS011;6875;50.852;5.672;2023-03-14T08:14:24;8.17;;;1.37;;
13607;SDS011;6875;50.852;5.672;2023-03-14T08:16:51;1.93;;;1.40;;
13607;SDS011;6875;50.852;5.672;2023-03-14T08:19:18;4.53;;;1.50;;
13607;SDS011;6875;50.852;5.672;2023-03-14T08:21:44;2.40;;;1.33;;
13607;SDS011;6875;50.852;5.672;2023-03-14T08:24:11;3.80;;;1.37;;
13607;SDS011;6875;50.852;5.672;2023-03-14T08:26:37;2.70;;;1.20;;
13607;SDS011;6875;50.852;5.672;2023-03-14T08:29:05;2.87;;;1.57;;
13607;SDS011;6875;50.852;5.672;2023-03-14T08:31:33;1.77;;;1.30;;
13607;SDS011;6875;50.852;5.672;2023-03-14T08:34:02;4.67;;;1.30;;
13607;SDS011;6875;50.852;5.672;2023-03-14T08:36:28;4.10;;;1.53;;
13607;SDS011;6875;50.852;5.672;2023-03-14T08:38:56;2.90;;;1.23;;
13607;SDS011;6875;50.852;5.672;2023-03-14T08:41:23;1.70;;;1.03;;
13607;SDS011;6875;50.852;5.672;2023-03-14T08:43:49;3.23;;;0.70;;
13607;SDS011;6875;50.852;5.672;2023-03-14T08:46:17;3.90;;;0.70;;
13607;SDS011;6875;50.852;5.672;2023-03-14T08:48:44;2.10;;;0.77;;
13607;SDS011;6875;50.852;5.672;2023-03-14T08:51:11;2.63;;;1.20;;
13607;SDS011;6875;50.852;5.672;2023-03-14T08:53:38;5.87;;;1.70;;
13607;SDS011;6875;50.852;5.672;2023-03-14T08:56:05;1.77;;;1.03;;
13607;SDS011;6875;50.852;5.672;2023-03-14T08:58:34;4.23;;;0.93;;
13607;SDS011;6875;50.852;5.672;2023-03-14T09:01:02;6.57;;;1.60;;
13607;SDS011;6875;50.852;5.672;2023-03-14T09:03:31;4.40;;;1.20;;
13607;SDS011;6875;50.852;5.672;2023-03-14T09:06:01;2.90;;;1.13;;
13607;SDS011;6875;50.852;5.672;2023-03-14T09:08:29;3.60;;;1.10;;
13607;SDS011;6875;50.852;5.672;2023-03-14T09:10:56;3.37;;;0.60;;
13607;SDS011;6875;50.852;5.672;2023-03-14T09:13:22;2.03;;;0.63;;
13607;SDS011;6875;50.852;5.672;2023-03-14T09:15:50;0.67;;;0.40;;
13607;SDS011;6875;50.852;5.672;2023-03-14T09:18:17;2.90;;;0.70;;
13607;SDS011;6875;50.852;5.672;2023-03-14T09:20:45;3.20;;;0.50;;
13607;SDS011;6875;50.852;5.672;2023-03-14T09:23:11;0.27;;;0.27;;
13607;SDS011;6875;50.852;5.672;2023-03-14T09:25:38;0.80;;;0.40;;
13607;SDS011;6875;50.852;5.672;2023-03-14T09:28:04;1.80;;;0.60;;
13607;SDS011;6875;50.852;5.672;2023-03-14T09:30:31;2.77;;;0.60;;
13607;SDS011;6875;50.852;5.672;2023-03-14T09:32:58;2.10;;;0.60;;
13607;SDS011;6875;50.852;5.672;2023-03-14T09:35:25;4.77;;;0.80;;
13607;SDS011;6875;50.852;5.672;2023-03-14T09:37:53;2.00;;;0.80;;
13607;SDS011;6875;50.852;5.672;2023-03-14T09:40:19;3.50;;;1.10;;
13607;SDS011;6875;50.852;5.672;2023-03-14T09:42:48;2.07;;;0.60;;
13607;SDS011;6875;50.852;5.672;2023-03-14T09:45:19;7.93;;;2.40;;
13607;SDS011;6875;50.852;5.672;2023-03-14T09:47:50;4.30;;;0.90;;
13607;SDS011;6875;50.852;5.672;2023-03-14T09:50:16;5.47;;;1.10;;
13607;SDS011;6875;50.852;5.672;2023-03-14T09:52:44;3.17;;;0.90;;
13607;SDS011;6875;50.852;5.672;2023-03-14T09:55:14;5.83;;;0.97;;
13607;SDS011;6875;50.852;5.672;2023-03-14T09:57:42;6.53;;;1.33;;
13607;SDS011;6875;50.852;5.672;2023-03-14T10:00:13;5.27;;;1.50;;
13607;SDS011;6875;50.852;5.672;2023-03-14T10:02:41;7.33;;;1.40;;
13607;SDS011;6875;50.852;5.672;2023-03-14T10:05:13;10.63;;;2.10;;
13607;SDS011;6875;50.852;5.672;2023-03-14T10:07:41;7.87;;;1.70;;
13607;SDS011;6875;50.852;5.672;2023-03-14T10:10:09;12.77;;;2.13;;
13607;SDS011;6875;50.852;5.672;2023-03-14T10:12:38;12.93;;;2.30;;
13607;SDS011;6875;50.852;5.672;2023-03-14T10:15:07;8.90;;;2.07;;
13607;SDS011;6875;50.852;5.672;2023-03-14T10:17:38;11.40;;;2.10;;
13607;SDS011;6875;50.852;5.672;2023-03-14T10:20:06;10.40;;;2.03;;
13607;SDS011;6875;50.852;5.672;2023-03-14T10:22:41;9.97;;;2.17;;
13607;SDS011;6875;50.852;5.672;2023-03-14T10:25:18;7.53;;;1.37;;
13607;SDS011;6875;50.852;5.672;2023-03-14T10:27:53;7.93;;;2.30;;
13607;SDS011;6875;50.852;5.672;2023-03-14T10:30:27;8.53;;;2.03;;
13607;SDS011;6875;50.852;5.672;2023-03-14T10:32:55;15.97;;;2.20;;
13607;SDS011;6875;50.852;5.672;2023-03-14T10:35:22;10.07;;;1.80;;
13607;SDS011;6875;50.852;5.672;2023-03-14T10:37:50;6.50;;;1.87;;
13607;SDS011;6875;50.852;5.672;2023-03-14T10:40:20;13.47;;;1.73;;
13607;SDS011;6875;50.852;5.672;2023-03-14T10:42:53;9.13;;;2.20;;
13607;SDS011;6875;50.852;5.672;2023-03-14T10:45:22;7.40;;;1.90;;
13607;SDS011;6875;50.852;5.672;2023-03-14T10:50:48;8.87;;;1.60;;
13607;SDS011;6875;50.852;5.672;2023-03-14T10:53:17;7.20;;;2.33;;
13607;SDS011;6875;50.852;5.672;2023-03-14T10:55:44;14.10;;;2.50;;
13607;SDS011;6875;50.852;5.672;2023-03-14T10:58:22;9.03;;;1.80;;
13607;SDS011;6875;50.852;5.672;2023-03-14T11:00:52;12.67;;;3.03;;
13607;SDS011;6875;50.852;5.672;2023-03-14T11:03:23;11.40;;;2.77;;
13607;SDS011;6875;50.852;5.672;2023-03-14T11:05:51;8.30;;;2.07;;
13607;SDS011;6875;50.852;5.672;2023-03-14T11:08:23;9.93;;;2.30;;
13607;SDS011;6875;50.852;5.672;2023-03-14T11:10:53;11.17;;;2.13;;
13607;SDS011;6875;50.852;5.672;2023-03-14T11:13:24;12.80;;;2.37;;
13607;SDS011;6875;50.852;5.672;2023-03-14T11:15:58;13.10;;;2.27;;
13607;SDS011;6875;50.852;5.672;2023-03-14T11:18:36;16.27;;;2.43;;
13607;SDS011;6875;50.852;5.672;2023-03-14T11:21:13;17.33;;;3.23;;
13607;SDS011;6875;50.852;5.672;2023-03-14T11:23:47;12.07;;;2.70;;
13607;SDS011;6875;50.852;5.672;2023-03-14T11:26:24;14.63;;;2.87;;
13607;SDS011;6875;50.852;5.672;2023-03-14T11:28:56;14.40;;;2.90;;
13607;SDS011;6875;50.852;5.672;2023-03-14T11:31:24;21.90;;;3.13;;
13607;SDS011;6875;50.852;5.672;2023-03-14T11:33:54;14.87;;;2.90;;
13607;SDS011;6875;50.852;5.672;2023-03-14T11:36:24;10.70;;;2.53;;
13607;SDS011;6875;50.852;5.672;2023-03-14T11:38:56;13.03;;;2.77;;
13607;SDS011;6875;50.852;5.672;2023-03-14T11:41:25;11.00;;;2.40;;
13607;SDS011;6875;50.852;5.672;2023-03-14T11:43:56;6.63;;;1.37;;
13607;SDS011;6875;50.852;5.672;2023-03-14T11:46:25;12.20;;;2.30;;
13607;SDS011;6875;50.852;5.672;2023-03-14T11:48:56;8.43;;;2.47;;
13607;SDS011;6875;50.852;5.672;2023-03-14T11:51:27;18.23;;;2.43;;
13607;SDS011;6875;50.852;5.672;2023-03-14T11:53:58;19.17;;;2.80;;
13607;SDS011;6875;50.852;5.672;2023-03-14T11:56:31;23.13;;;3.27;;
13607;SDS011;6875;50.852;5.672;2023-03-14T11:59:01;11.97;;;2.77;;
13607;SDS011;6875;50.852;5.672;2023-03-14T12:01:33;16.40;;;2.63;;
13607;SDS011;6875;50.852;5.672;2023-03-14T12:04:09;17.27;;;3.60;;
13607;SDS011;6875;50.852;5.672;2023-03-14T12:06:40;18.03;;;2.90;;
13607;SDS011;6875;50.852;5.672;2023-03-14T12:09:12;13.93;;;2.57;;
13607;SDS011;6875;50.852;5.672;2023-03-14T12:11:39;21.53;;;4.00;;
13607;SDS011;6875;50.852;5.672;2023-03-14T12:14:20;14.90;;;3.10;;
13607;SDS011;6875;50.852;5.672;2023-03-14T12:16:49;17.93;;;2.97;;
13607;SDS011;6875;50.852;5.672;2023-03-14T12:19:26;16.53;;;2.97;;
13607;SDS011;6875;50.852;5.672;2023-03-14T12:21:55;16.47;;;3.40;;
13607;SDS011;6875;50.852;5.672;2023-03-14T12:24:24;15.63;;;3.50;;
13607;SDS011;6875;50.852;5.672;2023-03-14T12:26:54;11.97;;;2.73;;
13607;SDS011;6875;50.852;5.672;2023-03-14T12:29:22;12.23;;;3.10;;
13607;SDS011;6875;50.852;5.672;2023-03-14T12:31:51;17.17;;;2.80;;
13607;SDS011;6875;50.852;5.672;2023-03-14T12:34:33;7.30;;;1.80;;
13607;SDS011;6875;50.852;5.672;2023-03-14T12:37:10;10.37;;;2.27;;
13607;SDS011;6875;50.852;5.672;2023-03-14T12:39:45;7.20;;;1.80;;
13607;SDS011;6875;50.852;5.672;2023-03-14T12:42:17;9.67;;;2.50;;
13607;SDS011;6875;50.852;5.672;2023-03-14T12:44:48;11.13;;;2.30;;
13607;SDS011;6875;50.852;5.672;2023-03-14T12:50:13;7.37;;;2.50;;
13607;SDS011;6875;50.852;5.672;2023-03-14T12:52:44;5.47;;;1.17;;
13607;SDS011;6875;50.852;5.672;2023-03-14T12:55:19;9.40;;;1.80;;
13607;SDS011;6875;50.852;5.672;2023-03-14T12:57:48;11.30;;;1.50;;
13607;SDS011;6875;50.852;5.672;2023-03-14T13:00:23;11.70;;;1.80;;
13607;SDS011;6875;50.852;5.672;2023-03-14T13:03:00;6.77;;;1.37;;
13607;SDS011;6875;50.852;5.672;2023-03-14T13:05:29;8.33;;;1.73;;
13607;SDS011;6875;50.852;5.672;2023-03-14T13:08:02;7.17;;;1.33;;
13607;SDS011;6875;50.852;5.672;2023-03-14T13:10:30;7.77;;;2.20;;
13607;SDS011;6875;50.852;5.672;2023-03-14T13:13:11;9.80;;;1.90;;
13607;SDS011;6875;50.852;5.672;2023-03-14T13:15:44;2.43;;;1.20;;
13607;SDS011;6875;50.852;5.672;2023-03-14T13:18:12;3.73;;;1.10;;
13607;SDS011;6875;50.852;5.672;2023-03-14T13:20:41;8.20;;;2.00;;
13607;SDS011;6875;50.852;5.672;2023-03-14T13:23:21;7.43;;;1.30;;
13607;SDS011;6875;50.852;5.672;2023-03-14T13:25:49;7.80;;;1.93;;
13607;SDS011;6875;50.852;5.672;2023-03-14T13:28:15;11.97;;;2.70;;
13607;SDS011;6875;50.852;5.672;2023-03-14T13:30:44;7.70;;;1.60;;
13607;SDS011;6875;50.852;5.672;2023-03-14T13:33:12;16.20;;;2.50;;
13607;SDS011;6875;50.852;5.672;2023-03-14T13:35:41;5.20;;;1.73;;
13607;SDS011;6875;50.852;5.672;2023-03-14T13:38:16;12.13;;;1.90;;
13607;SDS011;6875;50.852;5.672;2023-03-14T13:40:44;9.50;;;2.00;;
13607;SDS011;6875;50.852;5.672;2023-03-14T13:43:14;12.43;;;2.17;;
13607;SDS011;6875;50.852;5.672;2023-03-14T13:45:48;7.63;;;1.60;;
13607;SDS011;6875;50.852;5.672;2023-03-14T13:48:16;6.73;;;1.33;;
13607;SDS011;6875;50.852;5.672;2023-03-14T13:50:49;6.67;;;1.43;;
13607;SDS011;6875;50.852;5.672;2023-03-14T13:53:17;4.40;;;1.70;;
13607;SDS011;6875;50.852;5.672;2023-03-14T13:55:44;10.00;;;1.87;;
13607;SDS011;6875;50.852;5.672;2023-03-14T13:58:12;8.53;;;1.70;;
13607;SDS011;6875;50.852;5.672;2023-03-14T14:00:54;10.33;;;1.87;;
13607;SDS011;6875;50.852;5.672;2023-03-14T14:03:22;7.27;;;1.47;;
13607;SDS011;6875;50.852;5.672;2023-03-14T14:05:49;6.00;;;1.50;;
13607;SDS011;6875;50.852;5.672;2023-03-14T14:08:15;6.60;;;1.67;;
13607;SDS011;6875;50.852;5.672;2023-03-14T14:10:42;4.67;;;1.40;;
13607;SDS011;6875;50.852;5.672;2023-03-14T14:13:10;4.73;;;1.37;;
13607;SDS011;6875;50.852;5.672;2023-03-14T14:15:41;5.17;;;1.70;;
13607;SDS011;6875;50.852;5.672;2023-03-14T14:18:11;4.13;;;1.50;;
13607;SDS011;6875;50.852;5.672;2023-03-14T14:20:39;6.43;;;1.37;;
13607;SDS011;6875;50.852;5.672;2023-03-14T14:23:09;6.30;;;1.47;;
13607;SDS011;6875;50.852;5.672;2023-03-14T14:25:37;8.17;;;1.47;;
13607;SDS011;6875;50.852;5.672;2023-03-14T14:28:14;6.27;;;1.70;;
13607;SDS011;6875;50.852;5.672;2023-03-14T14:30:41;5.63;;;1.73;;
13607;SDS011;6875;50.852;5.672;2023-03-14T14:33:18;4.73;;;1.47;;
13607;SDS011;6875;50.852;5.672;2023-03-14T14:35:53;4.07;;;1.43;;
13607;SDS011;6875;50.852;5.672;2023-03-14T14:38:20;5.57;;;1.20;;
13607;SDS011;6875;50.852;5.672;2023-03-14T14:40:48;6.30;;;1.30;;
13607;SDS011;6875;50.852;5.672;2023-03-14T14:43:16;7.90;;;1.53;;
13607;SDS011;6875;50.852;5.672;2023-03-14T14:45:44;5.00;;;1.17;;
13607;SDS011;6875;50.852;5.672;2023-03-14T14:48:13;8.00;;;1.40;;
13607;SDS011;6875;50.852;5.672;2023-03-14T14:50:48;6.10;;;1.33;;
13607;SDS011;6875;50.852;5.672;2023-03-14T14:53:19;5.27;;;1.40;;
13607;SDS011;6875;50.852;5.672;2023-03-14T14:55:49;7.63;;;1.30;;
13607;SDS011;6875;50.852;5.672;2023-03-14T14:58:18;8.00;;;1.40;;
13607;SDS011;6875;50.852;5.672;2023-03-14T15:00:49;7.40;;;1.60;;
13607;SDS011;6875;50.852;5.672;2023-03-14T15:03:19;5.37;;;1.30;;
13607;SDS011;6875;50.852;5.672;2023-03-14T15:05:47;5.37;;;0.93;;
13607;SDS011;6875;50.852;5.672;2023-03-14T15:08:14;7.17;;;1.57;;
13607;SDS011;6875;50.852;5.672;2023-03-14T15:10:41;4.73;;;1.20;;
13607;SDS011;6875;50.852;5.672;2023-03-14T15:13:08;7.77;;;1.40;;
13607;SDS011;6875;50.852;5.672;2023-03-14T15:15:34;9.70;;;1.27;;